createdAt,value
2023-03-04T09:08:53.732Z,21.90
2023-03-04T09:11:22.082Z,21.80
2023-03-04T09:13:50.472Z,21.40
2023-03-04T09:16:18.990Z,17.88
2023-03-04T09:18:47.604Z,17.65
2023-03-04T09:21:16.155Z,18.35
2023-03-04T09:23:44.408Z,17.80
2023-03-04T09:26:22.769Z,17.88
2023-03-04T09:28:55.662Z,14.38
2023-03-04T09:31:24.786Z,16.67
2023-03-04T09:33:54.031Z,13.68
2023-03-04T09:36:23.187Z,15.38
2023-03-04T09:38:51.818Z,16.10
2023-03-04T09:41:24.815Z,17.58
2023-03-04T09:43:55.117Z,15.57
2023-03-04T09:46:39.812Z,15.98
2023-03-04T09:49:08.438Z,14.43
2023-03-04T09:51:45.697Z,15.68
2023-03-04T09:54:46.764Z,14.82
2023-03-04T09:57:52.021Z,17.27
2023-03-04T10:00:39.507Z,13.70
2023-03-04T10:03:10.639Z,13.48
2023-03-04T10:06:04.145Z,12.27
2023-03-04T10:08:57.160Z,14.18
2023-03-04T10:11:44.701Z,15.07
2023-03-04T10:14:57.588Z,17.42
2023-03-04T10:17:33.628Z,14.00
2023-03-04T10:20:07.971Z,15.77
2023-03-04T10:22:42.630Z,12.23
2023-03-04T10:25:24.521Z,15.07
2023-03-04T10:28:01.653Z,11.07
2023-03-04T10:30:48.414Z,13.60
2023-03-04T10:33:22.794Z,15.55
2023-03-04T10:36:18.174Z,12.63
2023-03-04T10:38:46.834Z,15.77
2023-03-04T10:41:18.440Z,13.68
2023-03-04T10:44:00.924Z,26.13
2023-03-04T10:46:29.280Z,19.00
2023-03-04T10:48:58.555Z,16.48
2023-03-04T10:51:31.061Z,39.08
2023-03-04T10:54:08.023Z,21.17
2023-03-04T10:56:43.464Z,24.50
2023-03-04T10:59:45.246Z,14.43
2023-03-04T11:02:33.055Z,11.82
2023-03-04T11:05:20.288Z,12.90
2023-03-04T11:08:01.448Z,14.30
2023-03-04T11:10:31.061Z,10.88
2023-03-04T11:13:20.174Z,13.48
2023-03-04T11:15:58.199Z,11.60
2023-03-04T11:18:40.068Z,12.25
2023-03-04T11:21:14.359Z,11.73
2023-03-04T11:24:25.738Z,10.70
2023-03-04T11:27:14.928Z,11.25
2023-03-04T11:29:55.784Z,14.43
2023-03-04T11:32:32.213Z,13.02
2023-03-04T11:35:23.827Z,13.70
2023-03-04T11:38:01.433Z,18.88
2023-03-04T11:40:52.228Z,13.60
2023-03-04T11:43:33.235Z,10.40
2023-03-04T11:46:16.911Z,10.40
2023-03-04T11:49:02.363Z,17.38
2023-03-04T11:51:39.433Z,13.00
2023-03-04T11:54:34.493Z,17.33
2023-03-04T11:57:12.783Z,11.07
2023-03-04T12:00:40.110Z,16.17
2023-03-04T12:03:43.746Z,12.88
2023-03-04T12:06:39.936Z,12.07
2023-03-04T12:09:40.314Z,15.73
2023-03-04T12:12:33.492Z,12.98
2023-03-04T12:15:11.184Z,17.73
2023-03-04T12:17:45.742Z,13.38
2023-03-04T12:20:50.467Z,12.90
2023-03-04T12:23:42.368Z,13.05
2023-03-04T12:26:29.141Z,12.70
2023-03-04T12:29:15.861Z,15.88
2023-03-04T12:31:46.821Z,15.73
2023-03-04T12:34:33.606Z,10.82
2023-03-04T12:37:24.774Z,17.95
2023-03-04T12:40:24.110Z,19.88
2023-03-04T12:43:47.568Z,11.90
2023-03-04T12:46:36.054Z,12.20
2023-03-04T12:49:19.352Z,11.27
2023-03-04T12:52:05.850Z,12.55
2023-03-04T12:55:14.924Z,12.57
2023-03-04T12:57:44.015Z,12.45
2023-03-04T13:00:22.892Z,10.82
2023-03-04T13:03:12.409Z,10.98
2023-03-04T13:05:43.576Z,12.13
2023-03-04T13:08:31.432Z,10.97
2023-03-04T13:11:04.770Z,14.85
2023-03-04T13:13:39.517Z,12.65
2023-03-04T13:16:23.174Z,11.48
2023-03-04T13:18:52.202Z,12.48
2023-03-04T13:21:44.720Z,12.50
2023-03-04T13:24:45.975Z,12.77
2023-03-04T13:27:51.472Z,11.98
2023-03-04T13:30:59.064Z,12.38
2023-03-04T13:33:27.431Z,12.70
2023-03-04T13:35:55.835Z,11.32
2023-03-04T13:38:30.328Z,13.48
2023-03-04T13:41:07.890Z,11.10
2023-03-04T13:43:40.830Z,13.23
2023-03-04T13:46:21.471Z,10.98
2023-03-04T13:48:52.669Z,14.10
2023-03-04T13:51:40.872Z,9.70
2023-03-04T13:54:14.771Z,11.93
2023-03-04T13:56:43.827Z,11.77
2023-03-04T13:59:27.719Z,12.85
2023-03-04T14:01:57.863Z,13.32
2023-03-04T14:04:37.688Z,13.13
2023-03-04T14:07:28.491Z,10.95
2023-03-04T14:10:23.643Z,11.32
2023-03-04T14:12:58.675Z,13.25
2023-03-04T14:15:35.942Z,10.27
2023-03-04T14:18:06.090Z,11.10
2023-03-04T14:20:50.170Z,9.68
2023-03-04T14:23:25.997Z,11.80
2023-03-04T14:26:12.129Z,11.95
2023-03-04T14:28:51.379Z,11.07
2023-03-04T14:31:22.595Z,21.55
2023-03-04T14:33:55.186Z,14.77
2023-03-04T14:36:24.674Z,17.60
2023-03-04T14:38:56.894Z,23.45
2023-03-04T14:41:34.363Z,15.73
2023-03-04T14:44:13.544Z,13.93
2023-03-04T14:47:06.006Z,11.70
2023-03-04T14:49:37.876Z,12.63
2023-03-04T14:52:06.805Z,13.73
2023-03-04T14:54:41.294Z,10.60
2023-03-04T14:57:27.203Z,14.35
2023-03-04T14:59:55.694Z,11.25
2023-03-04T15:02:38.836Z,10.48
2023-03-04T15:05:18.388Z,9.93
2023-03-04T15:07:58.788Z,10.75
2023-03-04T15:10:31.120Z,10.27
2023-03-04T15:13:00.926Z,10.65
2023-03-04T15:15:43.641Z,11.50
2023-03-04T15:18:28.922Z,9.60
2023-03-04T15:21:04.849Z,12.05
2023-03-04T15:23:34.380Z,12.18
2023-03-04T15:26:05.286Z,14.73
2023-03-04T15:28:39.929Z,12.90
2023-03-04T15:31:20.240Z,14.52
2023-03-04T15:33:49.085Z,10.73
2023-03-04T15:36:23.279Z,9.85
2023-03-04T15:38:53.664Z,13.07
2023-03-04T15:41:27.037Z,11.75
2023-03-04T15:43:55.804Z,9.80
2023-03-04T15:46:24.417Z,9.63
2023-03-04T15:48:52.864Z,9.93
2023-03-04T15:51:24.644Z,9.93
2023-03-04T15:53:59.097Z,8.88
2023-03-04T15:56:32.646Z,10.48
2023-03-04T15:59:23.955Z,8.43
2023-03-04T16:01:52.164Z,9.55
2023-03-04T16:04:20.532Z,8.68
2023-03-04T16:06:50.238Z,9.60
2023-03-04T16:09:19.955Z,9.30
2023-03-04T16:11:48.582Z,10.32
2023-03-04T16:14:17.287Z,8.88
2023-03-04T16:16:45.556Z,9.43
2023-03-04T16:19:13.899Z,9.88
2023-03-04T16:21:42.296Z,10.35
2023-03-04T16:24:18.540Z,11.40
2023-03-04T16:26:47.461Z,9.45
2023-03-04T16:29:16.627Z,10.07
2023-03-04T16:31:45.198Z,9.45
2023-03-04T16:34:13.712Z,10.18
2023-03-04T16:36:42.061Z,10.20
2023-03-04T16:39:21.013Z,9.57
2023-03-04T16:41:49.879Z,14.13
2023-03-04T16:44:18.244Z,10.95
2023-03-04T16:46:46.726Z,9.35
2023-03-04T16:49:14.901Z,11.73
2023-03-04T16:51:47.177Z,7.85
2023-03-04T16:54:24.389Z,10.93
2023-03-04T16:56:52.813Z,10.02
2023-03-04T16:59:21.055Z,10.68
2023-03-04T17:01:50.137Z,15.35
2023-03-04T17:04:18.454Z,13.65
2023-03-04T17:06:46.804Z,19.83
2023-03-04T17:09:15.456Z,19.30
2023-03-04T17:11:46.352Z,14.25
2023-03-04T17:14:14.763Z,15.47
2023-03-04T17:16:43.094Z,13.57
2023-03-04T17:19:11.256Z,18.35
2023-03-04T17:21:39.618Z,19.42
2023-03-04T17:24:44.224Z,11.80
2023-03-04T17:27:20.990Z,14.18
2023-03-04T17:29:49.918Z,15.25
2023-03-04T17:32:18.258Z,22.10
2023-03-04T17:34:46.792Z,21.70
2023-03-04T17:37:16.001Z,25.67
2023-03-04T17:39:44.313Z,19.90
2023-03-04T17:42:12.908Z,16.05
2023-03-04T17:44:41.290Z,15.45
2023-03-04T17:47:09.902Z,14.02
2023-03-04T17:49:47.504Z,13.55
2023-03-04T17:52:15.746Z,14.70
2023-03-04T17:54:45.744Z,30.08
2023-03-04T17:57:15.658Z,19.83
2023-03-04T17:59:45.875Z,16.20
2023-03-04T18:02:16.761Z,12.75
2023-03-04T18:04:45.297Z,13.07
2023-03-04T18:07:13.526Z,11.57
2023-03-04T18:09:42.055Z,12.73
2023-03-04T18:12:10.868Z,13.18
2023-03-04T18:14:39.118Z,12.50
2023-03-04T18:17:07.458Z,12.00
2023-03-04T18:19:35.808Z,10.50
2023-03-04T18:22:04.211Z,11.40
2023-03-04T18:24:32.657Z,10.73
2023-03-04T18:27:00.847Z,13.73
2023-03-04T18:29:29.238Z,14.55
2023-03-04T18:31:57.598Z,17.60
2023-03-04T18:34:26.105Z,14.57
2023-03-04T18:36:54.358Z,17.30
2023-03-04T18:39:22.720Z,16.70
2023-03-04T18:41:51.186Z,18.45
2023-03-04T18:44:19.458Z,13.93
2023-03-04T18:46:55.106Z,15.95
2023-03-04T18:49:24.005Z,17.55
2023-03-04T18:51:52.808Z,16.25
2023-03-04T18:54:21.130Z,16.92
2023-03-04T18:56:55.262Z,29.92
2023-03-04T18:59:28.325Z,35.92
2023-03-04T19:01:56.898Z,42.63
2023-03-04T19:04:28.940Z,39.95
2023-03-04T19:09:25.680Z,43.13
2023-03-04T19:11:53.977Z,39.88
2023-03-04T19:14:22.278Z,46.30
2023-03-04T19:16:50.742Z,31.20
2023-03-04T19:19:19.251Z,42.65
2023-03-04T19:21:47.650Z,31.88
2023-03-04T19:24:16.029Z,41.55
2023-03-04T19:26:44.536Z,38.47
2023-03-04T19:29:13.005Z,32.72
2023-03-04T19:31:41.655Z,34.03
2023-03-04T19:34:10.522Z,30.33
2023-03-04T19:36:39.543Z,26.10
2023-03-04T19:39:09.587Z,28.35
2023-03-04T19:41:40.952Z,21.75
2023-03-04T19:44:09.422Z,30.75
2023-03-04T19:46:37.635Z,27.25
2023-03-04T19:49:06.042Z,36.58
2023-03-04T19:51:34.307Z,45.25
2023-03-04T19:54:03.037Z,40.15
2023-03-04T19:56:34.232Z,40.63
2023-03-04T19:59:02.903Z,29.77
2023-03-04T20:01:36.740Z,70.28
2023-03-04T20:04:08.592Z,41.63
2023-03-04T20:06:45.574Z,179.60
2023-03-04T20:09:15.676Z,165.52
2023-03-04T20:11:57.076Z,57.50
2023-03-04T20:14:26.532Z,48.13
2023-03-04T20:16:54.890Z,39.55
2023-03-04T20:19:23.201Z,44.78
2023-03-04T20:21:51.579Z,50.63
2023-03-04T20:24:20.165Z,83.03
2023-03-04T20:40:32.012Z,35.67
2023-03-04T20:43:00.328Z,27.00
2023-03-04T20:45:28.983Z,19.42
2023-03-04T20:47:57.354Z,75.97
2023-03-04T20:50:25.797Z,38.47
2023-03-04T20:52:53.948Z,22.45
2023-03-04T20:55:22.447Z,59.28
2023-03-04T20:57:50.894Z,75.35
2023-03-04T21:00:19.520Z,73.32
2023-03-04T21:02:47.760Z,92.03
2023-03-04T21:05:16.505Z,32.13
2023-03-04T21:07:45.055Z,23.92
2023-03-04T21:10:13.468Z,24.38
2023-03-04T21:12:41.804Z,57.17
2023-03-04T21:15:10.675Z,100.55
2023-03-04T21:17:39.033Z,163.13
2023-03-04T21:20:08.067Z,167.50
2023-03-04T21:22:36.542Z,164.15
2023-03-04T21:25:05.502Z,69.93
2023-03-04T21:27:33.772Z,123.22
2023-03-04T21:30:02.044Z,141.98
2023-03-04T21:32:30.910Z,110.18
2023-03-04T21:34:59.249Z,39.72
2023-03-04T21:37:27.841Z,42.15
2023-03-04T21:39:56.976Z,27.27
2023-03-04T21:42:26.542Z,27.80
2023-03-04T21:44:56.530Z,32.30
2023-03-04T21:47:25.074Z,64.53
2023-03-04T21:49:53.654Z,24.35
2023-03-04T21:52:23.283Z,36.30
2023-03-04T21:54:52.017Z,46.15
2023-03-04T21:57:21.048Z,83.10
2023-03-04T21:59:50.031Z,86.82
2023-03-04T22:02:22.362Z,112.47
2023-03-04T22:04:51.058Z,102.03
2023-03-04T22:07:19.588Z,84.85
2023-03-04T22:09:47.989Z,71.45
2023-03-04T22:12:18.438Z,64.13
2023-03-04T22:14:48.258Z,30.10
2023-03-04T22:17:17.009Z,28.35
2023-03-04T22:19:45.776Z,43.28
2023-03-04T22:22:14.145Z,52.67
2023-03-04T22:24:42.954Z,34.60
2023-03-04T22:27:12.280Z,43.45
2023-03-04T22:29:40.664Z,50.38
2023-03-04T22:32:09.129Z,36.00
2023-03-04T22:34:37.529Z,106.75
2023-03-04T22:37:06.085Z,185.77
2023-03-04T22:39:34.597Z,94.78
2023-03-04T22:42:03.131Z,58.58
2023-03-04T22:44:31.777Z,57.83
2023-03-04T22:47:00.231Z,55.28
2023-03-04T22:49:28.606Z,68.75
2023-03-04T22:51:56.991Z,79.68
2023-03-04T22:54:25.450Z,91.55
2023-03-04T22:56:54.012Z,115.75
2023-03-04T22:59:22.515Z,167.82
2023-03-04T23:01:51.000Z,204.05
2023-03-04T23:04:22.186Z,192.02
2023-03-04T23:06:50.756Z,110.80
2023-03-04T23:09:19.164Z,122.18
2023-03-04T23:11:47.625Z,145.27
2023-03-04T23:14:15.937Z,130.57
2023-03-04T23:16:44.472Z,89.68
2023-03-04T23:19:14.990Z,87.47
2023-03-04T23:21:44.280Z,90.18
2023-03-04T23:24:13.657Z,88.15
2023-03-04T23:26:44.106Z,75.13
2023-03-04T23:29:16.070Z,35.85
2023-03-04T23:31:44.825Z,39.60
2023-03-04T23:34:13.133Z,43.95
2023-03-04T23:36:41.596Z,67.57
2023-03-04T23:39:10.312Z,63.58
2023-03-04T23:41:39.081Z,86.05
2023-03-04T23:44:07.680Z,203.05
2023-03-04T23:46:36.211Z,119.32
2023-03-04T23:49:05.382Z,96.10
2023-03-04T23:51:33.963Z,72.93
2023-03-04T23:54:02.391Z,26.10
2023-03-04T23:56:32.088Z,28.95
2023-03-04T23:59:01.186Z,31.75
